createdAt,value
2022-10-20T00:00:41.301Z,13.30
2022-10-20T00:03:07.815Z,9.93
2022-10-20T00:05:34.404Z,11.63
2022-10-20T00:08:00.961Z,10.47
2022-10-20T00:10:27.365Z,13.17
2022-10-20T00:12:53.762Z,13.80
2022-10-20T00:15:20.211Z,11.83
2022-10-20T00:17:46.681Z,13.30
2022-10-20T00:22:44.464Z,14.90
2022-10-20T00:25:10.928Z,16.87
2022-10-20T00:27:37.341Z,12.00
2022-10-20T00:30:04.122Z,17.03
2022-10-20T00:32:30.528Z,11.70
2022-10-20T00:34:57.009Z,12.03
2022-10-20T00:37:23.482Z,14.67
2022-10-20T00:39:49.895Z,13.57
2022-10-20T00:42:16.880Z,13.93
2022-10-20T00:44:51.054Z,14.60
2022-10-20T00:47:18.682Z,13.10
2022-10-20T00:49:45.154Z,12.60
2022-10-20T00:52:11.559Z,12.53
2022-10-20T00:54:38.017Z,14.40
2022-10-20T00:57:04.427Z,14.43
2022-10-20T00:59:31.940Z,13.47
2022-10-20T01:01:58.439Z,14.47
2022-10-20T01:04:25.217Z,15.63
2022-10-20T01:06:51.614Z,13.50
2022-10-20T01:09:18.114Z,14.90
2022-10-20T01:11:44.506Z,13.93
2022-10-20T01:14:20.175Z,11.07
2022-10-20T01:16:52.813Z,9.93
2022-10-20T01:19:37.991Z,8.23
2022-10-20T01:22:08.533Z,9.87
2022-10-20T01:24:38.104Z,9.80
2022-10-20T01:27:21.748Z,9.33
2022-10-20T01:29:51.540Z,12.77
2022-10-20T01:32:24.895Z,11.30
2022-10-20T01:34:53.027Z,13.23
2022-10-20T01:37:47.563Z,12.87
2022-10-20T01:40:12.842Z,11.03
2022-10-20T01:42:39.440Z,9.77
2022-10-20T01:45:06.156Z,11.00
2022-10-20T01:47:32.696Z,10.67
2022-10-20T01:49:59.227Z,11.83
2022-10-20T01:52:25.711Z,10.33
2022-10-20T01:54:52.139Z,11.37
2022-10-20T01:57:37.265Z,9.93
2022-10-20T02:00:10.353Z,12.27
2022-10-20T02:02:36.959Z,12.13
2022-10-20T02:05:03.489Z,11.07
2022-10-20T02:07:30.424Z,9.37
2022-10-20T02:10:09.761Z,12.20
2022-10-20T02:12:37.814Z,8.43
2022-10-20T02:15:04.765Z,12.03
2022-10-20T02:17:31.232Z,7.93
2022-10-20T02:19:57.627Z,11.70
2022-10-20T02:22:24.070Z,12.97
2022-10-20T02:24:50.512Z,12.73
2022-10-20T02:27:20.959Z,10.87
2022-10-20T02:29:50.979Z,12.87
2022-10-20T02:32:17.486Z,10.27
2022-10-20T02:34:44.463Z,16.30
2022-10-20T02:37:11.064Z,10.40
2022-10-20T02:39:37.627Z,14.30
2022-10-20T02:42:04.845Z,11.00
2022-10-20T02:44:31.308Z,11.83
2022-10-20T02:46:57.746Z,12.77
2022-10-20T02:49:25.281Z,10.87
2022-10-20T02:51:51.713Z,10.83
2022-10-20T02:54:18.157Z,11.30
2022-10-20T02:56:44.635Z,11.70
2022-10-20T02:59:14.648Z,17.70
2022-10-20T03:01:41.298Z,13.23
2022-10-20T03:04:07.871Z,11.20
2022-10-20T03:06:34.534Z,11.73
2022-10-20T03:09:01.022Z,12.57
2022-10-20T03:11:27.490Z,10.73
2022-10-20T03:13:54.102Z,12.67
2022-10-20T03:16:20.578Z,13.93
2022-10-20T03:18:47.198Z,12.30
2022-10-20T03:21:13.640Z,14.83
2022-10-20T03:23:40.183Z,11.33
2022-10-20T03:26:07.097Z,12.37
2022-10-20T03:28:33.649Z,11.50
2022-10-20T03:31:00.161Z,12.83
2022-10-20T03:33:26.689Z,14.83
2022-10-20T03:35:53.179Z,15.57
2022-10-20T03:38:19.632Z,14.20
2022-10-20T03:40:46.231Z,14.60
2022-10-20T03:43:12.869Z,14.50
2022-10-20T03:45:39.295Z,15.10
2022-10-20T03:48:05.828Z,15.87
2022-10-20T03:50:32.357Z,15.30
2022-10-20T03:52:58.865Z,17.37
2022-10-20T03:55:25.314Z,17.27
2022-10-20T03:57:51.769Z,17.47
2022-10-20T04:00:18.266Z,17.20
2022-10-20T04:02:46.815Z,19.50
2022-10-20T04:05:13.737Z,20.67
2022-10-20T04:07:40.236Z,23.33
2022-10-20T04:10:07.095Z,16.63
2022-10-20T04:12:33.834Z,17.87
2022-10-20T04:15:00.511Z,15.63
2022-10-20T04:17:27.027Z,16.63
2022-10-20T04:19:53.523Z,15.67
2022-10-20T04:22:19.958Z,13.87
2022-10-20T04:24:46.423Z,13.63
2022-10-20T04:27:12.860Z,15.17
2022-10-20T04:29:39.331Z,14.57
2022-10-20T04:32:05.841Z,17.03
2022-10-20T04:34:32.418Z,13.77
2022-10-20T04:36:58.885Z,19.33
2022-10-20T04:39:25.538Z,15.77
2022-10-20T04:41:52.031Z,15.07
2022-10-20T04:44:18.534Z,15.53
2022-10-20T04:46:44.968Z,17.27
2022-10-20T04:49:11.409Z,23.47
2022-10-20T04:51:37.903Z,38.27
2022-10-20T04:56:31.760Z,47.40
2022-10-20T04:58:58.398Z,87.73
2022-10-20T05:01:26.322Z,28.43
2022-10-20T05:03:52.845Z,48.70
2022-10-20T05:06:20.159Z,38.83
2022-10-20T05:08:47.112Z,35.40
2022-10-20T05:11:14.916Z,72.10
2022-10-20T05:13:41.384Z,57.87
2022-10-20T05:16:08.032Z,63.47
2022-10-20T05:18:34.594Z,33.67
2022-10-20T05:21:08.798Z,28.27
2022-10-20T05:23:36.120Z,35.10
2022-10-20T05:26:06.113Z,39.33
2022-10-20T05:28:32.586Z,29.20
2022-10-20T05:31:05.826Z,27.90
2022-10-20T05:33:32.370Z,24.00
2022-10-20T05:35:58.857Z,26.47
2022-10-20T05:38:25.298Z,26.03
2022-10-20T05:40:51.732Z,23.17
2022-10-20T05:43:18.237Z,19.03
2022-10-20T05:45:44.664Z,26.77
2022-10-20T05:48:11.098Z,19.90
2022-10-20T05:50:38.755Z,32.07
2022-10-20T05:53:05.270Z,25.80
2022-10-20T05:55:31.693Z,25.10
2022-10-20T05:57:58.197Z,28.70
2022-10-20T06:00:30.920Z,26.73
2022-10-20T06:02:58.056Z,34.40
2022-10-20T06:05:24.533Z,26.97
2022-10-20T06:07:53.011Z,37.97
2022-10-20T06:10:19.441Z,29.17
2022-10-20T06:12:45.911Z,27.93
2022-10-20T06:15:12.357Z,33.53
2022-10-20T06:17:38.853Z,33.53
2022-10-20T06:20:05.436Z,31.97
2022-10-20T06:22:31.894Z,28.07
2022-10-20T06:24:58.352Z,31.60
2022-10-20T06:27:24.834Z,29.50
2022-10-20T06:29:51.423Z,28.40
2022-10-20T06:32:20.767Z,23.20
2022-10-20T06:34:47.260Z,27.13
2022-10-20T06:37:13.734Z,30.70
2022-10-20T06:39:40.265Z,26.43
2022-10-20T06:42:09.649Z,30.60
2022-10-20T06:44:38.641Z,24.83
2022-10-20T06:47:10.343Z,29.80
2022-10-20T06:49:36.806Z,28.00
2022-10-20T06:52:03.554Z,23.20
2022-10-20T06:54:30.132Z,25.23
2022-10-20T06:56:56.633Z,26.67
2022-10-20T06:59:23.090Z,24.57
2022-10-20T07:01:49.706Z,23.93
2022-10-20T07:04:16.259Z,26.23
2022-10-20T07:06:43.247Z,20.47
2022-10-20T07:09:12.672Z,26.70
2022-10-20T07:11:39.139Z,21.07
2022-10-20T07:14:05.671Z,22.37
2022-10-20T07:16:32.614Z,20.23
2022-10-20T07:18:59.278Z,18.27
2022-10-20T07:21:34.977Z,18.00
2022-10-20T07:24:04.517Z,18.87
2022-10-20T07:26:31.894Z,15.83
2022-10-20T07:28:59.053Z,15.77
2022-10-20T07:31:28.503Z,18.60
2022-10-20T07:34:07.127Z,11.80
2022-10-20T07:36:40.944Z,9.47
2022-10-20T07:39:07.580Z,10.50
2022-10-20T07:41:34.221Z,8.30
2022-10-20T07:44:00.670Z,7.23
2022-10-20T07:46:27.138Z,6.03
2022-10-20T07:48:53.782Z,3.93
2022-10-20T07:51:26.478Z,7.67
2022-10-20T07:53:56.896Z,5.07
2022-10-20T07:56:28.373Z,4.57
2022-10-20T07:58:54.901Z,4.33
2022-10-20T08:01:21.558Z,6.40
2022-10-20T08:03:48.073Z,6.87
2022-10-20T08:06:14.649Z,7.13
2022-10-20T08:08:41.189Z,6.77
2022-10-20T08:11:07.813Z,9.93
2022-10-20T08:13:34.227Z,7.70
2022-10-20T08:16:03.397Z,5.90
2022-10-20T08:21:14.029Z,8.43
2022-10-20T08:23:41.075Z,6.40
2022-10-20T08:26:10.716Z,7.97
2022-10-20T08:28:38.089Z,4.77
2022-10-20T08:31:04.939Z,8.43
2022-10-20T08:33:31.789Z,7.43
2022-10-20T08:36:04.860Z,9.80
2022-10-20T08:38:31.352Z,5.23
2022-10-20T08:40:58.244Z,7.20
2022-10-20T08:43:24.766Z,5.53
2022-10-20T08:45:51.268Z,6.23
2022-10-20T08:48:22.249Z,5.27
2022-10-20T08:50:49.514Z,6.47
2022-10-20T08:53:15.961Z,6.50
2022-10-20T08:55:43.234Z,6.13
2022-10-20T08:58:19.476Z,5.03
2022-10-20T09:00:46.282Z,4.97
2022-10-20T09:03:14.227Z,5.93
2022-10-20T09:05:41.334Z,5.10
2022-10-20T09:08:08.016Z,4.27
2022-10-20T09:10:38.574Z,4.37
2022-10-20T09:13:24.708Z,3.83
2022-10-20T09:15:51.601Z,3.03
2022-10-20T09:18:18.132Z,1.83
2022-10-20T09:20:49.120Z,2.33
2022-10-20T09:23:38.995Z,4.57
2022-10-20T09:26:02.965Z,2.20
2022-10-20T09:28:34.980Z,3.27
2022-10-20T09:31:04.912Z,3.33
2022-10-20T09:33:32.279Z,2.60
2022-10-20T09:36:04.849Z,2.67
2022-10-20T09:38:32.509Z,3.50
2022-10-20T09:41:03.273Z,3.17
2022-10-20T09:43:29.745Z,4.40
2022-10-20T09:45:57.122Z,5.10
2022-10-20T09:48:26.665Z,3.63
2022-10-20T09:50:55.500Z,5.40
2022-10-20T09:53:23.905Z,4.53
2022-10-20T09:55:50.442Z,1.90
2022-10-20T09:58:29.176Z,4.97
2022-10-20T10:01:02.432Z,4.93
2022-10-20T10:03:29.166Z,2.43
2022-10-20T10:05:56.445Z,2.77
2022-10-20T10:08:23.744Z,2.20
2022-10-20T10:11:02.449Z,2.30
2022-10-20T10:13:29.939Z,2.87
2022-10-20T10:16:03.836Z,2.83
2022-10-20T10:18:30.407Z,1.93
2022-10-20T10:20:57.932Z,2.37
2022-10-20T10:23:25.479Z,2.77
2022-10-20T10:25:52.104Z,5.33
2022-10-20T10:28:21.638Z,2.17
2022-10-20T10:30:50.090Z,4.57
2022-10-20T10:33:22.912Z,3.60
2022-10-20T10:35:49.343Z,1.97
2022-10-20T10:38:15.760Z,5.40
2022-10-20T10:40:45.249Z,2.00
2022-10-20T10:43:29.752Z,5.47
2022-10-20T10:46:11.091Z,1.17
2022-10-20T10:48:57.505Z,1.90
2022-10-20T10:51:43.238Z,3.37
2022-10-20T10:54:12.758Z,2.23
2022-10-20T10:56:46.754Z,2.83
2022-10-20T10:59:33.681Z,5.13
2022-10-20T11:02:12.352Z,3.83
2022-10-20T11:04:57.510Z,2.73
2022-10-20T11:07:23.979Z,1.53
2022-10-20T11:10:02.861Z,2.63
2022-10-20T11:12:32.292Z,1.80
2022-10-20T11:15:02.925Z,2.03
2022-10-20T11:17:37.490Z,4.43
2022-10-20T11:20:12.985Z,1.63
2022-10-20T11:22:58.234Z,1.50
2022-10-20T11:25:24.862Z,3.53
2022-10-20T11:27:51.338Z,1.93
2022-10-20T11:30:18.914Z,2.00
2022-10-20T11:32:54.714Z,2.40
2022-10-20T11:35:23.136Z,1.70
2022-10-20T11:37:55.798Z,2.03
2022-10-20T11:40:29.589Z,1.60
2022-10-20T11:43:08.887Z,1.00
2022-10-20T11:45:38.919Z,3.10
2022-10-20T11:48:23.739Z,1.67
2022-10-20T11:51:00.468Z,1.30
2022-10-20T11:53:39.246Z,0.87
2022-10-20T11:56:11.548Z,1.17
2022-10-20T11:58:42.714Z,1.37
2022-10-20T12:01:24.783Z,1.57
2022-10-20T12:04:09.755Z,1.10
2022-10-20T12:06:54.881Z,1.60
2022-10-20T12:09:44.671Z,2.20
2022-10-20T12:12:21.228Z,0.53
2022-10-20T12:14:54.105Z,1.20
2022-10-20T12:17:20.501Z,2.57
2022-10-20T12:19:49.109Z,0.83
2022-10-20T12:22:15.634Z,3.57
2022-10-20T12:24:42.759Z,0.97
2022-10-20T12:27:09.188Z,1.83
2022-10-20T12:29:35.645Z,2.50
2022-10-20T12:32:21.410Z,3.70
2022-10-20T12:34:48.559Z,0.43
2022-10-20T12:37:19.257Z,1.53
2022-10-20T12:39:46.201Z,0.40
2022-10-20T12:42:24.864Z,1.00
2022-10-20T12:44:51.365Z,0.60
2022-10-20T12:47:22.686Z,2.10
2022-10-20T12:50:21.618Z,1.23
2022-10-20T12:52:48.164Z,2.60
2022-10-20T12:55:21.265Z,2.80
2022-10-20T12:57:47.753Z,1.13
2022-10-20T13:00:20.210Z,0.93
2022-10-20T13:02:50.849Z,4.73
2022-10-20T13:05:17.322Z,1.00
2022-10-20T13:07:46.947Z,1.27
2022-10-20T13:10:25.543Z,0.80
2022-10-20T13:12:52.012Z,2.20
2022-10-20T13:15:18.502Z,1.43
2022-10-20T13:17:48.788Z,1.03
2022-10-20T13:20:25.897Z,0.70
2022-10-20T13:22:56.370Z,2.37
2022-10-20T13:25:41.808Z,2.77
2022-10-20T13:28:15.237Z,3.17
2022-10-20T13:30:58.363Z,1.33
2022-10-20T13:33:51.474Z,1.37
2022-10-20T13:36:39.915Z,1.53
2022-10-20T13:39:12.822Z,2.27
2022-10-20T13:41:44.538Z,1.07
2022-10-20T13:44:31.174Z,1.63
2022-10-20T13:47:07.354Z,2.10
2022-10-20T13:49:40.131Z,1.83
2022-10-20T13:52:08.908Z,1.17
2022-10-20T13:54:36.001Z,2.33
2022-10-20T13:57:02.438Z,4.87
2022-10-20T13:59:29.651Z,2.10
2022-10-20T14:01:57.153Z,3.53
2022-10-20T14:04:30.930Z,2.43
2022-10-20T14:07:04.326Z,13.20
2022-10-20T14:09:30.901Z,2.23
2022-10-20T14:12:01.407Z,6.73
2022-10-20T14:14:28.090Z,2.73
2022-10-20T14:16:56.134Z,1.50
2022-10-20T14:19:33.591Z,3.53
2022-10-20T14:22:10.106Z,4.13
2022-10-20T14:24:37.646Z,2.23
2022-10-20T14:27:04.607Z,1.93
2022-10-20T14:29:31.858Z,1.17
2022-10-20T14:31:58.422Z,2.83
2022-10-20T14:34:25.877Z,1.50
2022-10-20T14:36:52.398Z,2.03
2022-10-20T14:39:38.143Z,2.03
2022-10-20T14:42:06.600Z,2.30
2022-10-20T14:44:33.075Z,4.63
2022-10-20T14:47:00.504Z,2.53
2022-10-20T14:49:27.057Z,2.50
2022-10-20T14:51:56.636Z,2.47
2022-10-20T14:54:24.363Z,3.97
2022-10-20T14:56:53.997Z,2.60
2022-10-20T14:59:30.539Z,4.30
2022-10-20T15:02:11.512Z,2.60
2022-10-20T15:04:38.593Z,1.50
2022-10-20T15:07:13.927Z,3.50
2022-10-20T15:09:50.586Z,2.60
2022-10-20T15:12:28.233Z,3.40
2022-10-20T15:15:02.104Z,3.53
2022-10-20T15:17:36.525Z,2.97
2022-10-20T15:20:21.936Z,1.70
2022-10-20T15:22:50.198Z,4.27
2022-10-20T15:25:18.599Z,4.33
2022-10-20T15:27:44.995Z,3.70
2022-10-20T15:30:17.979Z,2.70
2022-10-20T15:32:44.425Z,3.50
2022-10-20T15:35:20.693Z,2.03
2022-10-20T15:37:50.828Z,3.43
2022-10-20T15:40:17.434Z,2.73
2022-10-20T15:42:43.876Z,3.87
2022-10-20T15:45:17.647Z,2.37
2022-10-20T15:47:44.392Z,6.27
2022-10-20T15:50:11.076Z,5.73
2022-10-20T15:52:37.971Z,5.43
2022-10-20T15:55:31.066Z,3.57
2022-10-20T16:00:41.656Z,3.43
2022-10-20T16:03:10.058Z,3.47
2022-10-20T16:05:36.620Z,3.87
2022-10-20T16:08:03.127Z,2.10
2022-10-20T16:10:29.797Z,5.87
2022-10-20T16:12:56.939Z,4.20
2022-10-20T16:15:27.409Z,5.37
2022-10-20T16:17:56.676Z,4.23
2022-10-20T16:20:23.209Z,6.43
2022-10-20T16:22:49.638Z,9.80
2022-10-20T16:25:16.147Z,6.10
2022-10-20T16:27:43.009Z,8.47
2022-10-20T16:30:09.646Z,7.13
2022-10-20T16:32:36.413Z,8.30
2022-10-20T16:35:06.397Z,9.53
2022-10-20T16:37:33.049Z,5.80
2022-10-20T16:39:59.682Z,6.63
2022-10-20T16:42:27.599Z,12.47
2022-10-20T16:44:54.088Z,9.70
2022-10-20T16:47:20.586Z,4.57
2022-10-20T16:49:47.064Z,6.73
2022-10-20T16:52:13.539Z,6.70
2022-10-20T16:57:12.831Z,5.37
2022-10-20T16:59:39.395Z,7.97
2022-10-20T17:02:05.905Z,10.97
2022-10-20T17:04:32.488Z,8.97
2022-10-20T17:06:58.959Z,7.67
2022-10-20T17:09:25.543Z,10.60
2022-10-20T17:11:51.961Z,11.67
2022-10-20T17:14:18.457Z,13.00
2022-10-20T17:16:44.907Z,16.60
2022-10-20T17:19:11.381Z,12.80
2022-10-20T17:21:38.554Z,13.67
2022-10-20T17:24:05.068Z,12.57
2022-10-20T17:26:31.651Z,12.47
2022-10-20T17:28:58.915Z,13.00
2022-10-20T17:31:25.557Z,12.97
2022-10-20T17:33:52.150Z,11.87
2022-10-20T17:36:19.181Z,13.83
2022-10-20T17:38:45.669Z,15.33
2022-10-20T17:41:13.035Z,14.00
2022-10-20T17:43:39.610Z,13.60
2022-10-20T17:46:09.870Z,11.87
2022-10-20T17:48:36.611Z,13.87
2022-10-20T17:51:10.939Z,15.10
2022-10-20T17:53:38.606Z,14.03
2022-10-20T17:56:05.953Z,13.00
2022-10-20T17:58:33.822Z,14.37
2022-10-20T18:01:07.157Z,16.47
2022-10-20T18:03:33.644Z,13.03
2022-10-20T18:06:05.715Z,15.00
2022-10-20T18:08:32.235Z,16.07
2022-10-20T18:10:58.696Z,13.30
2022-10-20T18:13:25.202Z,15.80
2022-10-20T18:15:51.621Z,21.23
2022-10-20T18:18:18.116Z,15.40
2022-10-20T18:20:53.820Z,16.33
2022-10-20T18:23:20.268Z,14.77
2022-10-20T18:25:46.716Z,14.77
2022-10-20T18:30:48.054Z,17.73
2022-10-20T18:33:14.613Z,16.10
2022-10-20T18:35:41.084Z,14.80
2022-10-20T18:38:07.587Z,16.70
2022-10-20T18:40:34.084Z,18.60
2022-10-20T18:43:00.863Z,14.03
2022-10-20T18:45:27.740Z,16.17
2022-10-20T18:47:54.264Z,14.30
2022-10-20T18:50:20.728Z,14.57
2022-10-20T18:52:47.216Z,14.93
2022-10-20T18:55:13.690Z,16.27
2022-10-20T18:57:40.624Z,14.80
2022-10-20T19:00:07.786Z,14.20
2022-10-20T19:02:35.569Z,14.23
2022-10-20T19:05:02.805Z,14.53
2022-10-20T19:07:31.760Z,15.13
2022-10-20T19:09:58.263Z,16.20
2022-10-20T19:12:26.257Z,18.70
2022-10-20T19:14:52.722Z,10.80
2022-10-20T19:17:19.170Z,14.10
2022-10-20T19:19:46.653Z,12.93
2022-10-20T19:22:13.124Z,17.37
2022-10-20T19:24:40.780Z,11.60
2022-10-20T19:27:25.717Z,13.60
2022-10-20T19:29:53.312Z,11.97
2022-10-20T19:32:19.775Z,10.67
2022-10-20T19:34:46.316Z,16.20
2022-10-20T19:37:12.790Z,14.80
2022-10-20T19:39:40.214Z,14.40
2022-10-20T19:42:06.850Z,11.03
2022-10-20T19:44:33.558Z,12.27
2022-10-20T19:47:00.120Z,13.10
2022-10-20T19:49:26.587Z,11.57
2022-10-20T19:51:53.190Z,13.50
2022-10-20T19:54:19.662Z,10.07
2022-10-20T19:56:46.469Z,15.90
2022-10-20T19:59:13.117Z,14.67
2022-10-20T20:01:39.647Z,12.07
2022-10-20T20:04:06.475Z,14.83
2022-10-20T20:06:32.972Z,16.63
2022-10-20T20:09:00.311Z,13.93
2022-10-20T20:11:29.632Z,12.00
2022-10-20T20:14:05.861Z,16.47
2022-10-20T20:16:32.428Z,14.60
2022-10-20T20:18:58.981Z,14.63
2022-10-20T20:21:25.880Z,16.93
2022-10-20T20:24:00.549Z,13.40
2022-10-20T20:26:28.409Z,16.87
2022-10-20T20:28:55.427Z,13.40
2022-10-20T20:31:22.187Z,13.00
2022-10-20T20:33:49.002Z,12.57
2022-10-20T20:36:15.636Z,12.50
2022-10-20T20:38:42.509Z,12.57
2022-10-20T20:41:11.039Z,13.73
2022-10-20T20:43:37.605Z,14.03
2022-10-20T20:46:04.925Z,13.77
2022-10-20T20:48:31.448Z,13.80
2022-10-20T20:50:58.084Z,14.77
2022-10-20T20:53:24.707Z,14.27
2022-10-20T20:55:54.626Z,15.07
2022-10-20T20:58:21.133Z,13.10
2022-10-20T21:00:47.764Z,16.47
2022-10-20T21:03:14.299Z,16.97
2022-10-20T21:05:40.758Z,16.23
2022-10-20T21:08:07.319Z,16.10
2022-10-20T21:10:35.529Z,14.83
2022-10-20T21:13:02.070Z,13.87
2022-10-20T21:15:28.532Z,17.43
2022-10-20T21:17:55.139Z,13.70
2022-10-20T21:20:21.637Z,15.23
2022-10-20T21:22:48.182Z,18.63
2022-10-20T21:25:14.787Z,14.50
2022-10-20T21:27:41.255Z,14.30
2022-10-20T21:30:08.011Z,16.77
2022-10-20T21:32:34.720Z,16.83
2022-10-20T21:35:01.880Z,16.27
2022-10-20T21:37:28.465Z,13.53
2022-10-20T21:39:55.007Z,13.87
2022-10-20T21:42:21.566Z,18.63
2022-10-20T21:44:50.078Z,18.10
2022-10-20T21:47:16.582Z,15.40
2022-10-20T21:49:43.080Z,18.07
2022-10-20T21:52:09.566Z,15.37
2022-10-20T21:54:36.026Z,18.33
2022-10-20T21:57:02.923Z,19.20
2022-10-20T21:59:29.896Z,17.63
2022-10-20T22:01:57.202Z,15.77
2022-10-20T22:04:24.217Z,17.73
2022-10-20T22:06:50.777Z,17.70
2022-10-20T22:09:17.512Z,17.70
2022-10-20T22:11:44.847Z,16.73
2022-10-20T22:14:11.426Z,20.70
2022-10-20T22:16:38.788Z,17.20
2022-10-20T22:19:06.191Z,18.47
2022-10-20T22:21:32.694Z,16.57
2022-10-20T22:23:59.511Z,19.63
2022-10-20T22:26:27.127Z,21.33
2022-10-20T22:28:53.801Z,15.90
2022-10-20T22:31:20.343Z,23.33
2022-10-20T22:33:46.893Z,17.30
2022-10-20T22:36:13.424Z,22.00
2022-10-20T22:38:39.928Z,20.70
2022-10-20T22:41:06.476Z,22.17
2022-10-20T22:43:32.929Z,18.40
2022-10-20T22:45:59.482Z,20.57
2022-10-20T22:48:26.157Z,19.10
2022-10-20T22:50:52.702Z,19.13
2022-10-20T22:53:19.276Z,21.67
2022-10-20T22:55:45.782Z,16.63
2022-10-20T22:58:12.300Z,20.00
2022-10-20T23:00:41.976Z,20.87
2022-10-20T23:03:08.521Z,23.70
2022-10-20T23:05:34.986Z,21.30
2022-10-20T23:08:01.430Z,18.23
2022-10-20T23:10:27.958Z,17.83
2022-10-20T23:12:54.432Z,19.90
2022-10-20T23:15:20.959Z,19.90
2022-10-20T23:17:47.550Z,20.20
2022-10-20T23:20:14.121Z,21.37
2022-10-20T23:22:40.635Z,17.83
2022-10-20T23:25:07.300Z,19.73
2022-10-20T23:27:34.147Z,19.57
2022-10-20T23:30:00.708Z,20.73
2022-10-20T23:32:27.188Z,23.97
2022-10-20T23:34:53.882Z,20.63
2022-10-20T23:37:21.845Z,18.93
2022-10-20T23:39:48.357Z,24.40
2022-10-20T23:42:14.894Z,21.07
2022-10-20T23:44:43.128Z,19.37
2022-10-20T23:47:09.655Z,19.50
2022-10-20T23:49:36.180Z,22.43
2022-10-20T23:52:02.613Z,19.93
2022-10-20T23:54:29.144Z,20.70
2022-10-20T23:56:55.592Z,18.17
2022-10-20T23:59:22.173Z,21.17
